createdAt,value
2022-11-23T00:02:03.653Z,94621.72
2022-11-23T00:04:30.251Z,94620.41
2022-11-23T00:06:56.788Z,94616.09
2022-11-23T00:09:23.320Z,94620.06
2022-11-23T00:11:49.904Z,94612.84
2022-11-23T00:14:16.445Z,94621.53
2022-11-23T00:16:43.042Z,94621.53
2022-11-23T00:19:09.790Z,94611.19
2022-11-23T00:21:36.386Z,94610.50
2022-11-23T00:24:03.074Z,94615.13
2022-11-23T00:26:30.102Z,94619.72
2022-11-23T00:28:56.659Z,94616.63
2022-11-23T00:31:23.314Z,94620.06
2022-11-23T00:33:50.777Z,94617.94
2022-11-23T00:36:17.510Z,94623.69
2022-11-23T00:38:44.440Z,94619.72
2022-11-23T00:41:13.152Z,94608.03
2022-11-23T00:43:40.064Z,94611.84
2022-11-23T00:46:14.291Z,94621.72
2022-11-23T00:48:41.022Z,94615.44
2022-11-23T00:51:09.045Z,94617.44
2022-11-23T00:53:35.809Z,94626.31
2022-11-23T00:56:02.719Z,94617.09
2022-11-23T00:58:29.768Z,94620.53
2022-11-23T01:01:03.776Z,94616.47
2022-11-23T01:03:30.905Z,94608.22
2022-11-23T01:06:05.128Z,94615.44
2022-11-23T01:08:31.740Z,94608.22
2022-11-23T01:10:58.887Z,94614.47
2022-11-23T01:13:25.420Z,94615.44
2022-11-23T01:15:51.993Z,94617.94
2022-11-23T01:18:18.556Z,94611.84
2022-11-23T01:20:45.067Z,94617.09
2022-11-23T01:23:11.595Z,94622.69
2022-11-23T01:25:38.114Z,94611.84
2022-11-23T01:28:04.745Z,94612.16
2022-11-23T01:30:31.478Z,94611.50
2022-11-23T01:32:58.028Z,94611.03
2022-11-23T01:35:24.580Z,94615.44
2022-11-23T01:37:51.150Z,94608.56
2022-11-23T01:40:17.700Z,94611.66
2022-11-23T01:42:49.640Z,94614.97
2022-11-23T01:45:28.187Z,94617.78
2022-11-23T01:47:54.847Z,94617.78
2022-11-23T01:50:21.429Z,94630.09
2022-11-23T01:52:47.969Z,94624.38
2022-11-23T01:55:14.620Z,94624.84
2022-11-23T01:57:42.588Z,94633.88
2022-11-23T02:00:09.431Z,94631.59
2022-11-23T02:02:36.868Z,94628.63
2022-11-23T02:05:04.059Z,94627.81
2022-11-23T02:07:31.423Z,94635.53
2022-11-23T02:09:58.136Z,94636.03
2022-11-23T02:12:24.703Z,94628.63
2022-11-23T02:14:51.216Z,94634.22
2022-11-23T02:17:17.854Z,94624.38
2022-11-23T02:20:13.700Z,94623.19
2022-11-23T02:22:53.773Z,94639.16
2022-11-23T02:25:39.252Z,94632.56
2022-11-23T02:28:06.182Z,94643.94
2022-11-23T02:30:34.721Z,94635.19
2022-11-23T02:33:03.710Z,94637.19
2022-11-23T02:35:30.235Z,94643.59
2022-11-23T02:37:56.784Z,94636.50
2022-11-23T02:40:26.407Z,94645.09
2022-11-23T02:42:52.928Z,94641.63
2022-11-23T02:45:24.262Z,94640.81
2022-11-23T02:47:50.713Z,94643.59
2022-11-23T02:50:17.270Z,94639.81
2022-11-23T02:52:43.833Z,94645.56
2022-11-23T02:55:10.889Z,94642.28
2022-11-23T02:57:37.377Z,94648.69
2022-11-23T03:00:04.164Z,94652.81
2022-11-23T03:02:30.664Z,94644.91
2022-11-23T03:04:57.146Z,94647.72
2022-11-23T03:07:23.672Z,94655.63
2022-11-23T03:09:50.421Z,94649.38
2022-11-23T03:12:16.939Z,94656.78
2022-11-23T03:14:43.441Z,94656.25
2022-11-23T03:17:09.958Z,94655.63
2022-11-23T03:19:36.469Z,94649.50
2022-11-23T03:22:03.608Z,94652.00
2022-11-23T03:24:30.223Z,94652.00
2022-11-23T03:26:56.706Z,94654.63
2022-11-23T03:29:26.501Z,94651.00
2022-11-23T03:31:53.759Z,94653.31
2022-11-23T03:34:20.309Z,94653.81
2022-11-23T03:36:46.902Z,94657.28
2022-11-23T03:39:13.397Z,94655.63
2022-11-23T03:41:39.967Z,94649.50
2022-11-23T03:44:06.468Z,94657.28
2022-11-23T03:46:32.992Z,94645.41
2022-11-23T03:48:59.467Z,94651.66
2022-11-23T03:51:26.164Z,94650.66
2022-11-23T03:53:52.650Z,94653.63
2022-11-23T03:56:20.144Z,94658.91
2022-11-23T03:58:46.622Z,94654.31
2022-11-23T04:01:13.196Z,94653.47
2022-11-23T04:03:39.690Z,94660.22
2022-11-23T04:06:06.228Z,94657.75
2022-11-23T04:08:32.708Z,94652.97
2022-11-23T04:10:59.516Z,94650.19
2022-11-23T04:13:25.981Z,94650.19
2022-11-23T04:15:52.509Z,94652.97
2022-11-23T04:18:19.039Z,94660.88
2022-11-23T04:20:45.615Z,94656.59
2022-11-23T04:23:13.714Z,94659.06
2022-11-23T04:25:40.483Z,94663.81
2022-11-23T04:28:06.974Z,94664.97
2022-11-23T04:30:33.506Z,94660.53
2022-11-23T04:33:00.033Z,94666.44
2022-11-23T04:35:26.561Z,94662.03
2022-11-23T04:37:53.079Z,94663.81
2022-11-23T04:40:19.630Z,94668.78
2022-11-23T04:42:46.108Z,94667.75
2022-11-23T04:45:12.630Z,94664.16
2022-11-23T04:47:39.149Z,94662.84
2022-11-23T04:50:06.055Z,94663.19
2022-11-23T04:52:32.604Z,94666.63
2022-11-23T04:54:59.121Z,94671.59
2022-11-23T04:57:25.657Z,94679.31
2022-11-23T04:59:52.226Z,94680.28
2022-11-23T05:02:18.759Z,94681.25
2022-11-23T05:04:45.234Z,94682.91
2022-11-23T05:07:11.843Z,94683.44
2022-11-23T05:09:38.375Z,94697.75
2022-11-23T05:12:04.978Z,94687.69
2022-11-23T05:14:31.829Z,94687.03
2022-11-23T05:16:58.346Z,94691.63
2022-11-23T05:19:24.878Z,94702.16
2022-11-23T05:21:51.526Z,94695.41
2022-11-23T05:24:18.095Z,94699.06
2022-11-23T05:26:44.594Z,94704.94
2022-11-23T05:29:11.116Z,94699.03
2022-11-23T05:31:37.625Z,94718.28
2022-11-23T05:34:04.654Z,94719.75
2022-11-23T05:36:31.547Z,94699.19
2022-11-23T05:38:58.239Z,94703.81
2022-11-23T05:41:24.713Z,94704.13
2022-11-23T05:43:51.241Z,94707.41
2022-11-23T05:46:18.841Z,94719.78
2022-11-23T05:48:45.417Z,94722.41
2022-11-23T05:51:11.898Z,94721.09
2022-11-23T05:53:38.412Z,94720.09
2022-11-23T05:56:05.031Z,94724.06
2022-11-23T05:58:31.523Z,94730.31
2022-11-23T06:01:01.512Z,94732.94
2022-11-23T06:03:28.238Z,94727.19
2022-11-23T06:05:54.735Z,94729.50
2022-11-23T06:08:21.237Z,94717.66
2022-11-23T06:10:47.847Z,94719.47
2022-11-23T06:13:14.341Z,94720.31
2022-11-23T06:15:40.833Z,94722.06
2022-11-23T06:18:07.339Z,94721.09
2022-11-23T06:20:33.844Z,94732.13
2022-11-23T06:23:00.367Z,94732.59
2022-11-23T06:25:26.908Z,94735.56
2022-11-23T06:27:54.167Z,94725.56
2022-11-23T06:30:20.848Z,94740.31
2022-11-23T06:32:47.404Z,94732.25
2022-11-23T06:35:13.976Z,94745.13
2022-11-23T06:37:40.465Z,94741.16
2022-11-23T06:40:07.325Z,94750.69
2022-11-23T06:42:40.795Z,94754.66
2022-11-23T06:45:07.757Z,94748.06
2022-11-23T06:47:34.593Z,94758.28
2022-11-23T06:50:01.184Z,94764.88
2022-11-23T06:52:27.757Z,94765.22
2022-11-23T06:54:54.315Z,94775.44
2022-11-23T06:57:20.820Z,94770.97
2022-11-23T06:59:47.334Z,94774.13
2022-11-23T07:02:14.741Z,94776.44
2022-11-23T07:04:41.226Z,94773.47
2022-11-23T07:07:08.308Z,94775.63
2022-11-23T07:09:35.213Z,94777.41
2022-11-23T07:12:02.024Z,94777.75
2022-11-23T07:14:28.594Z,94772.19
2022-11-23T07:16:55.381Z,94780.75
2022-11-23T07:19:21.862Z,94774.97
2022-11-23T07:21:48.374Z,94774.84
2022-11-23T07:24:14.859Z,94784.88
2022-11-23T07:26:41.358Z,94776.63
2022-11-23T07:29:07.860Z,94782.22
2022-11-23T07:31:34.408Z,94780.28
2022-11-23T07:34:00.865Z,94781.91
2022-11-23T07:36:27.397Z,94793.75
2022-11-23T07:38:53.858Z,94786.53
2022-11-23T07:41:20.420Z,94786.72
2022-11-23T07:43:47.000Z,94785.22
2022-11-23T07:46:13.527Z,94785.38
2022-11-23T07:48:40.024Z,94795.13
2022-11-23T07:51:06.524Z,94800.53
2022-11-23T07:53:32.973Z,94792.78
2022-11-23T07:55:59.498Z,94795.94
2022-11-23T07:58:26.032Z,94802.34
2022-11-23T08:00:52.887Z,94797.22
2022-11-23T08:03:28.480Z,94796.38
2022-11-23T08:05:56.158Z,94795.22
2022-11-23T08:08:22.835Z,94804.78
2022-11-23T08:10:53.373Z,94804.13
2022-11-23T08:13:20.938Z,94811.06
2022-11-23T08:15:53.428Z,94806.94
2022-11-23T08:18:20.841Z,94803.50
2022-11-23T08:20:47.465Z,94807.13
2022-11-23T08:23:13.989Z,94803.84
2022-11-23T08:25:40.519Z,94802.19
2022-11-23T08:28:07.499Z,94812.91
2022-11-23T08:30:34.295Z,94812.72
2022-11-23T08:33:04.802Z,94803.84
2022-11-23T08:35:33.051Z,94799.53
2022-11-23T08:37:59.578Z,94802.50
2022-11-23T08:40:26.152Z,94800.16
2022-11-23T08:42:52.804Z,94792.75
2022-11-23T08:45:19.337Z,94797.19
2022-11-23T08:47:45.870Z,94797.81
2022-11-23T08:50:12.554Z,94797.34
2022-11-23T08:52:39.094Z,94800.75
2022-11-23T08:55:06.022Z,94796.34
2022-11-23T08:57:32.529Z,94802.06
2022-11-23T08:59:59.069Z,94808.66
2022-11-23T09:02:25.536Z,94808.66
2022-11-23T09:04:52.052Z,94810.13
2022-11-23T09:07:18.619Z,94811.63
2022-11-23T09:09:45.284Z,94816.09
2022-11-23T09:12:11.976Z,94812.75
2022-11-23T09:14:38.678Z,94809.81
2022-11-23T09:17:05.361Z,94809.16
2022-11-23T09:19:31.885Z,94810.31
2022-11-23T09:21:58.537Z,94815.94
2022-11-23T09:24:26.008Z,94816.75
2022-11-23T09:26:52.749Z,94808.03
2022-11-23T09:29:19.450Z,94812.47
2022-11-23T09:31:45.971Z,94811.66
2022-11-23T09:34:13.851Z,94813.78
2022-11-23T09:36:40.402Z,94813.66
2022-11-23T09:39:06.943Z,94812.31
2022-11-23T09:41:48.124Z,94813.13
2022-11-23T09:44:34.438Z,94813.44
2022-11-23T09:47:13.523Z,94810.09
2022-11-23T09:49:55.806Z,94813.91
2022-11-23T09:52:24.201Z,94810.25
2022-11-23T09:54:53.439Z,94810.25
2022-11-23T09:57:22.602Z,94813.22
2022-11-23T09:59:59.293Z,94810.19
2022-11-23T10:02:26.680Z,94810.81
2022-11-23T10:04:53.878Z,94816.91
2022-11-23T10:07:30.450Z,94812.47
2022-11-23T10:10:00.446Z,94814.56
2022-11-23T10:12:49.240Z,94811.44
2022-11-23T10:15:28.084Z,94814.53
2022-11-23T10:17:54.645Z,94822.19
2022-11-23T10:20:22.567Z,94817.41
2022-11-23T10:22:57.562Z,94813.22
2022-11-23T10:25:24.679Z,94812.72
2022-11-23T10:27:53.401Z,94810.41
2022-11-23T10:30:20.690Z,94817.47
2022-11-23T10:33:10.956Z,94815.69
2022-11-23T10:35:38.447Z,94806.72
2022-11-23T10:38:18.099Z,94811.22
2022-11-23T10:40:57.763Z,94815.50
2022-11-23T10:43:26.410Z,94811.34
2022-11-23T10:46:12.923Z,94811.03
2022-11-23T10:48:39.436Z,94812.50
2022-11-23T10:51:24.844Z,94810.69
2022-11-23T10:53:53.984Z,94809.38
2022-11-23T10:56:20.605Z,94805.25
2022-11-23T10:58:47.319Z,94799.16
2022-11-23T11:01:15.161Z,94802.78
2022-11-23T11:03:41.879Z,94799.97
2022-11-23T11:06:10.260Z,94801.97
2022-11-23T11:08:49.054Z,94801.81
2022-11-23T11:11:24.117Z,94797.19
2022-11-23T11:13:51.163Z,94795.34
2022-11-23T11:16:27.942Z,94789.06
2022-11-23T11:18:54.538Z,94801.75
2022-11-23T11:21:34.545Z,94798.75
2022-11-23T11:24:05.755Z,94797.41
2022-11-23T11:26:36.168Z,94799.38
2022-11-23T11:29:04.719Z,94798.69
2022-11-23T11:31:31.276Z,94805.59
2022-11-23T11:34:09.875Z,94804.91
2022-11-23T11:36:43.001Z,94807.84
2022-11-23T11:39:18.787Z,94808.97
2022-11-23T11:41:47.439Z,94802.50
2022-11-23T11:44:19.080Z,94807.31
2022-11-23T11:46:48.137Z,94803.31
2022-11-23T11:49:26.561Z,94808.91
2022-11-23T11:52:13.399Z,94799.78
2022-11-23T11:54:46.980Z,94801.94
2022-11-23T11:57:20.084Z,94793.63
2022-11-23T11:59:52.987Z,94797.81
2022-11-23T12:02:28.556Z,94791.13
2022-11-23T12:05:13.964Z,94788.91
2022-11-23T12:07:46.696Z,94790.56
2022-11-23T12:10:17.583Z,94789.56
2022-11-23T12:12:44.488Z,94787.94
2022-11-23T12:15:47.961Z,94789.03
2022-11-23T12:18:18.402Z,94780.09
2022-11-23T12:20:50.723Z,94787.38
2022-11-23T12:23:17.254Z,94786.75
2022-11-23T12:25:53.328Z,94780.38
2022-11-23T12:28:25.652Z,94782.13
2022-11-23T12:30:52.276Z,94781.66
2022-11-23T12:33:33.061Z,94786.63
2022-11-23T12:36:05.799Z,94789.22
2022-11-23T12:38:42.893Z,94784.38
2022-11-23T12:41:28.119Z,94791.50
2022-11-23T12:44:00.743Z,94784.66
2022-11-23T12:46:33.523Z,94784.28
2022-11-23T12:49:06.050Z,94785.00
2022-11-23T12:51:40.520Z,94790.78
2022-11-23T12:54:15.775Z,94795.16
2022-11-23T12:56:51.401Z,94788.84
2022-11-23T12:59:18.923Z,94789.47
2022-11-23T13:01:49.562Z,94779.69
2022-11-23T13:04:31.412Z,94779.34
2022-11-23T13:07:28.419Z,94782.81
2022-11-23T13:09:44.681Z,94784.28
2022-11-23T13:12:20.293Z,94792.84
2022-11-23T13:15:22.077Z,94799.78
2022-11-23T13:18:12.403Z,94787.22
2022-11-23T13:20:41.681Z,94789.56
2022-11-23T13:23:08.581Z,94790.75
2022-11-23T13:25:35.191Z,94790.75
2022-11-23T13:28:03.679Z,94788.72
2022-11-23T13:30:51.877Z,94796.56
2022-11-23T13:33:16.780Z,94797.34
2022-11-23T13:35:43.812Z,94795.94
2022-11-23T13:38:16.485Z,94793.84
2022-11-23T13:40:44.251Z,94795.84
2022-11-23T13:43:30.365Z,94800.19
2022-11-23T13:46:15.587Z,94796.78
2022-11-23T13:48:56.605Z,94795.03
2022-11-23T13:51:25.057Z,94800.66
2022-11-23T13:53:54.905Z,94803.84
2022-11-23T13:56:33.756Z,94802.19
2022-11-23T13:59:20.974Z,94811.13
2022-11-23T14:02:06.089Z,94803.50
2022-11-23T14:04:33.998Z,94806.78
2022-11-23T14:07:07.000Z,94806.31
2022-11-23T14:09:39.415Z,94816.41
2022-11-23T14:12:12.076Z,94823.34
2022-11-23T14:14:57.356Z,94822.34
2022-11-23T14:17:39.995Z,94823.72
2022-11-23T14:20:16.782Z,94816.78
2022-11-23T14:22:46.371Z,94825.19
2022-11-23T14:25:15.653Z,94825.19
2022-11-23T14:27:50.681Z,94829.13
2022-11-23T14:30:17.281Z,94821.94
2022-11-23T14:33:03.833Z,94830.16
2022-11-23T14:35:33.210Z,94833.47
2022-11-23T14:38:18.292Z,94831.81
2022-11-23T14:40:44.812Z,94839.66
2022-11-23T14:43:14.766Z,94838.69
2022-11-23T14:45:41.519Z,94847.19
2022-11-23T14:48:26.853Z,94846.09
2022-11-23T14:50:57.843Z,94851.00
2022-11-23T14:53:27.863Z,94845.44
2022-11-23T14:55:54.486Z,94844.97
2022-11-23T14:58:23.719Z,94845.13
2022-11-23T15:00:50.257Z,94850.13
2022-11-23T15:03:49.224Z,94853.81
2022-11-23T15:06:14.736Z,94852.00
2022-11-23T15:08:47.664Z,94858.28
2022-11-23T15:11:16.945Z,94858.31
2022-11-23T15:13:44.772Z,94857.53
2022-11-23T15:16:12.408Z,94861.53
2022-11-23T15:18:39.168Z,94857.06
2022-11-23T15:21:14.758Z,94861.25
2022-11-23T15:23:49.518Z,94855.31
2022-11-23T15:26:34.702Z,94855.31
2022-11-23T15:29:02.560Z,94858.66
2022-11-23T15:31:36.372Z,94862.13
2022-11-23T15:34:12.963Z,94859.84
2022-11-23T15:36:41.125Z,94864.09
2022-11-23T15:39:10.648Z,94858.00
2022-11-23T15:41:37.485Z,94869.72
2022-11-23T15:44:15.451Z,94870.56
2022-11-23T15:46:42.840Z,94874.34
2022-11-23T15:49:13.011Z,94868.44
2022-11-23T15:51:41.412Z,94873.72
2022-11-23T15:54:31.129Z,94875.34
2022-11-23T15:57:00.795Z,94878.47
2022-11-23T15:59:30.538Z,94875.69
2022-11-23T16:01:57.527Z,94879.34
2022-11-23T16:04:30.479Z,94882.97
2022-11-23T16:06:57.644Z,94884.13
2022-11-23T16:09:57.161Z,94886.91
2022-11-23T16:12:31.284Z,94897.78
2022-11-23T16:14:58.961Z,94895.16
2022-11-23T16:17:29.329Z,94893.81
2022-11-23T16:20:00.799Z,94893.53
2022-11-23T16:22:27.399Z,94890.88
2022-11-23T16:24:59.316Z,94895.50
2022-11-23T16:27:25.897Z,94892.19
2022-11-23T16:29:53.256Z,94893.19
2022-11-23T16:32:25.196Z,94905.06
2022-11-23T16:34:52.539Z,94912.28
2022-11-23T16:37:19.205Z,94912.97
2022-11-23T16:39:45.759Z,94913.94
2022-11-23T16:42:14.101Z,94916.56
2022-11-23T16:44:42.065Z,94907.00
2022-11-23T16:47:19.539Z,94913.94
2022-11-23T16:49:46.107Z,94923.94
2022-11-23T16:52:12.662Z,94924.56
2022-11-23T16:54:39.252Z,94922.94
2022-11-23T16:57:05.957Z,94927.22
2022-11-23T16:59:32.957Z,94935.13
2022-11-23T17:01:59.827Z,94938.91
2022-11-23T17:04:26.637Z,94930.97
2022-11-23T17:06:53.206Z,94936.38
2022-11-23T17:09:19.866Z,94942.59
2022-11-23T17:11:47.976Z,94945.56
2022-11-23T17:14:18.518Z,94941.28
2022-11-23T17:16:46.671Z,94953.88
2022-11-23T17:19:17.284Z,94957.00
2022-11-23T17:21:45.163Z,94957.44
2022-11-23T17:24:13.113Z,94953.72
2022-11-23T17:26:47.480Z,94961.31
2022-11-23T17:29:16.303Z,94965.22
2022-11-23T17:31:43.713Z,94968.50
2022-11-23T17:34:10.361Z,94966.84
2022-11-23T17:36:37.196Z,94970.16
2022-11-23T17:39:04.075Z,94972.63
2022-11-23T17:41:30.641Z,94969.31
2022-11-23T17:43:59.690Z,94965.84
2022-11-23T17:46:26.941Z,94972.91
2022-11-23T17:48:57.276Z,94969.09
2022-11-23T17:51:24.252Z,94973.34
2022-11-23T17:53:51.136Z,94978.91
2022-11-23T17:56:19.582Z,94982.50
2022-11-23T17:58:46.320Z,94977.25
2022-11-23T18:01:15.047Z,94981.53
2022-11-23T18:03:42.566Z,94981.06
2022-11-23T18:06:12.860Z,94988.81
2022-11-23T18:08:39.395Z,94999.50
2022-11-23T18:11:06.291Z,95000.63
2022-11-23T18:13:32.813Z,94998.97
2022-11-23T18:15:59.426Z,94998.31
2022-11-23T18:18:26.013Z,95004.53
2022-11-23T18:20:53.062Z,95001.25
2022-11-23T18:23:19.892Z,95005.81
2022-11-23T18:25:46.600Z,95006.94
2022-11-23T18:28:16.322Z,95006.13
2022-11-23T18:30:44.500Z,95007.09
2022-11-23T18:33:11.053Z,95011.41
2022-11-23T18:35:37.618Z,95017.78
2022-11-23T18:38:04.184Z,95003.13
2022-11-23T18:40:30.685Z,95011.19
2022-11-23T18:42:58.756Z,95008.16
2022-11-23T18:45:25.396Z,95011.78
2022-11-23T18:47:52.006Z,95009.28
2022-11-23T18:50:18.540Z,95013.50
2022-11-23T18:52:45.081Z,95022.69
2022-11-23T18:55:11.931Z,95016.88
2022-11-23T18:57:38.454Z,95020.22
2022-11-23T19:00:06.512Z,95020.06
2022-11-23T19:02:34.345Z,95023.81
2022-11-23T19:05:00.922Z,95033.47
2022-11-23T19:07:27.638Z,95033.78
2022-11-23T19:09:54.359Z,95038.38
2022-11-23T19:12:20.884Z,95040.03
2022-11-23T19:14:49.955Z,95037.25
2022-11-23T19:17:17.214Z,95037.38
2022-11-23T19:19:43.744Z,95038.25
2022-11-23T19:22:10.287Z,95039.34
2022-11-23T19:24:36.875Z,95041.03
2022-11-23T19:27:03.403Z,95040.16
2022-11-23T19:29:29.978Z,95026.88
2022-11-23T19:31:56.526Z,95035.59
2022-11-23T19:34:23.242Z,95032.81
2022-11-23T19:36:49.767Z,95037.69
2022-11-23T19:39:16.316Z,95038.59
2022-11-23T19:41:43.081Z,95036.81
2022-11-23T19:44:09.764Z,95034.84
2022-11-23T19:46:36.353Z,95034.69
2022-11-23T19:49:04.829Z,95034.41
2022-11-23T19:51:31.402Z,95027.47
2022-11-23T19:53:58.184Z,95027.88
2022-11-23T19:56:25.873Z,95030.63
2022-11-23T19:58:53.617Z,95027.19
2022-11-23T20:01:21.379Z,95026.06
2022-11-23T20:03:49.080Z,95025.25
2022-11-23T20:06:16.893Z,95031.47
2022-11-23T20:08:44.060Z,95041.28
2022-11-23T20:11:15.197Z,95039.66
2022-11-23T20:13:42.013Z,95040.31
2022-11-23T20:16:10.393Z,95050.03
2022-11-23T20:18:36.961Z,95044.38
2022-11-23T20:21:03.760Z,95051.44
2022-11-23T20:23:30.555Z,95055.88
2022-11-23T20:25:57.772Z,95064.88
2022-11-23T20:28:24.760Z,95062.72
2022-11-23T20:30:51.786Z,95060.88
2022-11-23T20:33:19.609Z,95061.59
2022-11-23T20:35:47.847Z,95057.97
2022-11-23T20:38:14.521Z,95064.88
2022-11-23T20:40:41.099Z,95062.25
2022-11-23T20:43:07.639Z,95063.22
2022-11-23T20:45:34.169Z,95063.09
2022-11-23T20:48:00.821Z,95081.53
2022-11-23T20:50:28.015Z,95074.53
2022-11-23T20:52:59.365Z,95082.41
2022-11-23T20:55:25.936Z,95079.78
2022-11-23T20:57:53.202Z,95084.91
2022-11-23T21:00:21.523Z,95084.06
2022-11-23T21:02:48.970Z,95087.66
2022-11-23T21:05:15.722Z,95096.94
2022-11-23T21:07:42.270Z,95087.91
2022-11-23T21:10:09.021Z,95088.44
2022-11-23T21:12:54.132Z,95094.53
2022-11-23T21:15:20.956Z,95101.44
2022-11-23T21:17:47.502Z,95100.63
2022-11-23T21:20:14.918Z,95105.88
2022-11-23T21:22:41.439Z,95097.84
2022-11-23T21:25:08.165Z,95106.56
2022-11-23T21:27:35.280Z,95109.19
2022-11-23T21:30:01.817Z,95112.34
2022-11-23T21:32:28.351Z,95112.50
2022-11-23T21:34:55.881Z,95118.88
2022-11-23T21:37:22.402Z,95115.72
2022-11-23T21:39:52.841Z,95113.78
2022-11-23T21:42:19.799Z,95126.22
2022-11-23T21:44:46.516Z,95122.22
2022-11-23T21:47:13.234Z,95129.97
2022-11-23T21:49:40.022Z,95127.34
2022-11-23T21:52:06.639Z,95132.47
2022-11-23T21:54:33.434Z,95135.09
2022-11-23T21:57:00.278Z,95138.69
2022-11-23T21:59:26.842Z,95150.88
2022-11-23T22:01:57.188Z,95145.31
2022-11-23T22:04:23.863Z,95146.00
2022-11-23T22:06:50.458Z,95146.00
2022-11-23T22:09:17.275Z,95140.72
2022-11-23T22:11:44.206Z,95150.97
2022-11-23T22:14:12.110Z,95143.09
2022-11-23T22:16:49.925Z,95145.72
2022-11-23T22:19:17.115Z,95149.31
2022-11-23T22:21:44.382Z,95151.66
2022-11-23T22:24:12.690Z,95155.94
2022-11-23T22:26:39.241Z,95158.41
2022-11-23T22:29:06.879Z,95150.38
2022-11-23T22:31:34.836Z,95148.72
2022-11-23T22:34:04.402Z,95158.00
2022-11-23T22:36:31.329Z,95155.38
2022-11-23T22:39:01.749Z,95149.97
2022-11-23T22:41:29.160Z,95157.84
2022-11-23T22:43:56.262Z,95158.66
2022-11-23T22:46:23.989Z,95169.03
2022-11-23T22:48:51.765Z,95162.81
2022-11-23T22:51:19.450Z,95169.88
2022-11-23T22:53:46.444Z,95167.25
2022-11-23T22:56:16.893Z,95174.53
2022-11-23T22:58:44.595Z,95163.63
2022-11-23T23:01:21.988Z,95170.53
2022-11-23T23:03:52.479Z,95175.97
2022-11-23T23:06:20.160Z,95180.25
2022-11-23T23:08:47.917Z,95178.59
2022-11-23T23:11:15.001Z,95184.97
2022-11-23T23:13:41.883Z,95192.03
2022-11-23T23:16:10.481Z,95195.94
2022-11-23T23:18:37.160Z,95184.56
2022-11-23T23:21:04.875Z,95185.16
2022-11-23T23:23:31.450Z,95189.56
2022-11-23T23:25:58.043Z,95197.22
2022-11-23T23:28:24.686Z,95201.69
2022-11-23T23:30:51.223Z,95197.53
2022-11-23T23:33:17.809Z,95198.81
2022-11-23T23:35:44.759Z,95208.22
2022-11-23T23:38:11.320Z,95205.06
2022-11-23T23:40:37.826Z,95211.16
2022-11-23T23:43:04.383Z,95215.03
2022-11-23T23:45:30.952Z,95217.66
2022-11-23T23:47:58.014Z,95216.00
2022-11-23T23:50:24.569Z,95224.84
2022-11-23T23:52:51.140Z,95226.09
2022-11-23T23:55:17.662Z,95228.31
2022-11-23T23:57:44.200Z,95231.66
